Time;durP1;ratioP1;P1;durP2;ratioP2;P2;SDS_P1;SDS_P2;PMS_P1;PMS_P2;Temp;Humidity;BMP_temperature;BMP_pressure;BME280_temperature;BME280_humidity;BME280_pressure;Samples;Min_cycle;Max_cycle;Signal;HPM_P1;HPM_P2
2022/09/16 00:00:34;;;;;;;3.30;1.15;;;;;;;12.86;83.85;99494.56;1756401;81;21478;-80
2022/09/16 00:03:03;;;;;;;3.30;1.22;;;;;;;12.87;84.02;99494.92;1756281;81;21008;-80
2022/09/16 00:05:30;;;;;;;4.78;1.67;;;;;;;12.89;83.85;99489.59;1756402;81;21055;-80
2022/09/16 00:07:58;;;;;;;1.70;0.80;;;;;;;12.89;83.73;99494.84;1756735;81;21535;-81
2022/09/16 00:10:25;;;;;;;4.03;1.10;;;;;;;12.88;83.68;99501.02;1756430;81;21012;-80
2022/09/16 00:12:52;;;;;;;2.58;1.20;;;;;;;12.89;83.57;99500.11;1756414;81;21104;-80
2022/09/16 00:15:19;;;;;;;2.42;0.90;;;;;;;12.88;83.58;99499.23;1756633;80;21502;-81
2022/09/16 00:17:46;;;;;;;2.65;1.00;;;;;;;12.89;83.58;99495.69;1756548;81;21067;-81
2022/09/16 00:20:13;;;;;;;7.10;1.00;;;;;;;12.90;83.45;99504.41;1756471;81;21442;-80
2022/09/16 00:22:40;;;;;;;1.98;1.02;;;;;;;12.89;83.39;99500.11;1756657;81;21047;-80
2022/09/16 00:25:08;;;;;;;4.87;1.92;;;;;;;12.90;83.38;99503.10;1756445;80;21745;-81
2022/09/16 00:27:35;;;;;;;2.77;1.07;;;;;;;12.91;83.33;99505.65;1756386;81;21040;-83
2022/09/16 00:30:03;;;;;;;3.08;1.00;;;;;;;12.92;83.20;99501.23;1756720;81;21008;-80
2022/09/16 00:32:31;;;;;;;4.53;1.40;;;;;;;12.92;83.19;99503.38;1756356;81;21076;-80
2022/09/16 00:34:58;;;;;;;3.15;0.90;;;;;;;12.94;83.05;99505.91;1756643;81;21028;-80
2022/09/16 00:37:25;;;;;;;2.35;0.98;;;;;;;12.96;82.89;99510.61;1756435;81;21118;-80
2022/09/16 00:39:52;;;;;;;2.52;1.00;;;;;;;12.94;82.74;99511.16;1756527;81;21025;-80
2022/09/16 00:42:19;;;;;;;2.98;1.00;;;;;;;12.94;82.68;99508.09;1756389;81;20977;-80
2022/09/16 00:45:05;;;;;;;3.67;1.00;;;;;;;12.95;82.58;99515.51;1756668;81;21075;-80
2022/09/16 00:47:56;;;;;;;6.85;0.90;;;;;;;12.96;82.55;99515.88;1753763;81;21016;-80
2022/09/16 00:50:37;;;;;;;7.47;1.37;;;;;;;12.97;82.46;99520.66;1737168;81;21913;-80
2022/09/16 00:53:08;;;;;;;3.10;1.10;;;;;;;12.96;82.39;99517.19;1738900;81;21059;-80
2022/09/16 00:55:37;;;;;;;4.00;0.72;;;;;;;12.94;82.35;99506.77;1735306;81;20992;-80
2022/09/16 00:58:13;;;;;;;4.33;1.00;;;;;;;12.94;82.33;99508.09;1756571;81;21016;-79
2022/09/16 01:00:42;;;;;;;3.65;1.10;;;;;;;12.93;82.24;99510.33;1756259;81;21080;-80
2022/09/16 01:03:09;;;;;;;1.90;1.10;;;;;;;12.91;82.25;99504.34;1712428;82;22000;-80
2022/09/16 01:05:37;;;;;;;3.40;1.15;;;;;;;12.90;82.16;99507.88;1731781;81;21513;-80
2022/09/16 01:08:05;;;;;;;3.42;1.00;;;;;;;12.91;82.21;99505.65;1740708;81;21020;-80
2022/09/16 01:10:32;;;;;;;3.12;0.90;;;;;;;12.90;82.21;99504.41;1743564;81;21032;-80
2022/09/16 01:13:04;;;;;;;2.77;1.00;;;;;;;12.88;82.08;99509.75;1748743;81;21012;-80
2022/09/16 01:15:54;;;;;;;5.45;1.00;;;;;;;12.88;81.96;99507.60;1756678;81;21490;-81
2022/09/16 01:18:33;;;;;;;4.15;1.00;;;;;;;12.84;81.90;99501.69;1751913;80;21111;-80
2022/09/16 01:21:34;;;;;;;3.62;0.88;;;;;;;12.80;81.82;99508.05;1741441;81;20989;-80
2022/09/16 01:24:25;;;;;;;4.15;1.40;;;;;;;12.77;81.85;99506.93;1751362;81;20993;-80
2022/09/16 01:27:00;;;;;;;2.75;0.88;;;;;;;12.72;81.79;99498.50;1711878;81;21594;-80
2022/09/16 01:29:39;;;;;;;3.30;1.05;;;;;;;12.70;81.81;99492.48;1755456;81;21053;-80
2022/09/16 01:32:28;;;;;;;2.52;1.00;;;;;;;12.67;81.86;99496.14;1756105;81;20990;-80
2022/09/16 01:35:07;;;;;;;1.98;1.10;;;;;;;12.66;81.91;99489.17;1756538;81;21020;-80
2022/09/16 01:37:54;;;;;;;5.72;1.10;;;;;;;12.67;81.96;99503.19;1735928;81;20997;-80
2022/09/16 01:40:29;;;;;;;6.83;1.10;;;;;;;12.66;82.09;99499.69;1698818;81;21513;-80
2022/09/16 01:43:20;;;;;;;1.42;0.90;;;;;;;12.68;82.04;99507.49;1756060;81;21278;-80
2022/09/16 01:46:13;;;;;;;6.95;2.17;;;;;;;12.67;82.02;99507.13;1756518;81;21071;-80
2022/09/16 01:49:09;;;;;;;2.83;0.90;;;;;;;12.69;82.15;99505.23;1756526;81;21060;-80
2022/09/16 01:51:53;;;;;;;2.77;1.10;;;;;;;12.71;82.26;99496.79;1741549;81;21459;-81
2022/09/16 01:54:35;;;;;;;2.98;1.10;;;;;;;12.73;82.25;99494.92;1747362;81;21630;-81
2022/09/16 01:57:10;;;;;;;5.58;1.17;;;;;;;12.74;82.23;99513.69;1740972;81;21040;-80
2022/09/16 01:59:57;;;;;;;4.47;1.47;;;;;;;12.75;82.23;99515.84;1755230;81;21012;-80
2022/09/16 02:02:29;;;;;;;2.75;1.27;;;;;;;12.75;82.24;99514.53;1756449;81;21029;-80
2022/09/16 02:05:01;;;;;;;2.70;1.25;;;;;;;12.77;82.31;99515.30;1756393;80;21013;-80
2022/09/16 02:07:33;;;;;;;4.22;1.12;;;;;;;12.77;82.27;99512.66;1756359;81;21454;-81
2022/09/16 02:10:08;;;;;;;3.95;1.35;;;;;;;12.77;82.28;99510.03;1746719;81;22028;-80
2022/09/16 02:12:39;;;;;;;3.37;1.47;;;;;;;12.77;82.28;99513.98;1746314;80;20981;-80
2022/09/16 02:15:10;;;;;;;2.80;1.30;;;;;;;12.77;82.28;99519.23;1735981;81;21583;-80
2022/09/16 02:17:43;;;;;;;2.15;1.02;;;;;;;12.77;82.28;99522.70;1756413;81;20997;-79
2022/09/16 02:20:16;;;;;;;6.58;1.52;;;;;;;12.75;82.17;99523.73;1756396;81;21013;-80
2022/09/16 02:22:47;;;;;;;3.62;1.07;;;;;;;12.72;82.26;99522.16;1756439;81;21852;-80
2022/09/16 02:25:18;;;;;;;6.92;1.40;;;;;;;12.71;82.35;99516.51;1756595;80;21024;-80
2022/09/16 02:27:52;;;;;;;3.90;1.30;;;;;;;12.70;82.40;99520.92;1756274;81;20985;-80
2022/09/16 02:30:20;;;;;;;4.08;1.65;;;;;;;12.68;82.36;99520.64;1755607;81;21556;-81
2022/09/16 02:32:58;;;;;;;4.87;1.35;;;;;;;12.66;82.39;99518.09;1756478;81;21095;-81
2022/09/16 02:35:27;;;;;;;3.12;1.42;;;;;;;12.66;82.44;99514.14;1756519;81;21165;-80
2022/09/16 02:38:02;;;;;;;5.30;1.32;;;;;;;12.65;82.46;99511.63;1756462;81;20997;-80
2022/09/16 02:40:38;;;;;;;4.05;1.30;;;;;;;12.64;82.45;99518.67;1756486;80;21513;-80
2022/09/16 02:43:05;;;;;;;2.33;0.93;;;;;;;12.63;82.42;99518.27;1751335;81;21017;-81
2022/09/16 02:45:49;;;;;;;2.22;1.37;;;;;;;12.62;82.45;99524.95;1738396;81;21098;-80
2022/09/16 02:48:43;;;;;;;3.10;1.32;;;;;;;12.59;82.36;99525.14;1726800;81;21112;-80
2022/09/16 02:51:36;;;;;;;3.85;1.07;;;;;;;12.57;82.45;99523.91;1707789;81;21547;-80
2022/09/16 02:54:15;;;;;;;9.95;1.42;;;;;;;12.52;82.42;99526.42;1755769;81;20993;-80
2022/09/16 02:56:42;;;;;;;3.55;1.35;;;;;;;12.48;82.46;99529.71;1755403;81;21453;-81
2022/09/16 02:59:11;;;;;;;3.60;1.12;;;;;;;12.45;82.49;99530.73;1756409;81;21025;-80
2022/09/16 03:01:43;;;;;;;4.00;1.15;;;;;;;12.41;82.51;99529.68;1756341;81;21109;-81
2022/09/16 03:04:14;;;;;;;3.92;1.30;;;;;;;12.36;82.50;99528.66;1743290;81;20877;-81
2022/09/16 03:06:42;;;;;;;2.50;0.95;;;;;;;12.31;82.52;99533.33;1749860;81;21031;-82
2022/09/16 03:09:12;;;;;;;5.60;1.47;;;;;;;12.27;82.72;99528.70;1756395;81;21473;-82
2022/09/16 03:12:08;;;;;;;;;;;;;;;12.26;82.82;99530.11;1738100;81;21023;-81
2022/09/16 03:15:04;;;;;;;4.80;1.00;;;;;;;12.25;82.99;99529.27;1756492;80;21123;-81
2022/09/16 03:17:42;;;;;;;3.22;0.90;;;;;;;12.22;83.00;99528.58;1756736;81;21000;-81
2022/09/16 03:20:50;;;;;;;3.70;0.98;;;;;;;12.19;83.07;99528.33;1735363;81;21451;-81
2022/09/16 03:24:00;;;;;;;5.05;1.45;;;;;;;12.18;83.17;99530.55;1756445;80;21020;-80
2022/09/16 03:26:49;;;;;;;;;;;;;;;12.17;83.30;99535.44;1761076;81;21031;-80
2022/09/16 03:29:30;;;;;;;3.30;1.20;;;;;;;12.16;83.43;99528.94;1697110;84;21252;-81
2022/09/16 03:32:17;;;;;;;5.78;1.30;;;;;;;12.14;83.47;99540.00;1695100;84;21070;-81
2022/09/16 03:34:55;;;;;;;2.87;1.10;;;;;;;12.10;83.46;99540.65;1734213;81;21016;-80
2022/09/16 03:37:26;;;;;;;4.78;1.27;;;;;;;12.08;83.46;99537.25;1762379;81;20985;-81
2022/09/16 03:39:56;;;;;;;4.17;1.30;;;;;;;12.08;83.56;99546.45;1762085;81;21060;-80
2022/09/16 03:42:24;;;;;;;6.00;1.15;;;;;;;12.07;83.54;99543.45;1762433;81;21024;-81
2022/09/16 03:44:51;;;;;;;5.72;1.20;;;;;;;12.04;83.65;99539.22;1761844;81;21052;-81
2022/09/16 03:47:18;;;;;;;5.45;1.20;;;;;;;12.04;83.71;99535.75;1762380;80;21012;-81
2022/09/16 03:49:45;;;;;;;4.92;1.00;;;;;;;12.04;83.83;99537.91;1762080;81;20969;-80
2022/09/16 03:52:12;;;;;;;5.03;1.15;;;;;;;12.03;83.79;99532.76;1762257;81;21264;-80
2022/09/16 03:54:39;;;;;;;3.52;1.10;;;;;;;12.01;83.87;99532.83;1762036;81;21113;-80
2022/09/16 03:57:06;;;;;;;3.15;1.15;;;;;;;12.02;83.98;99537.14;1762166;81;21408;-80
2022/09/16 03:59:33;;;;;;;4.83;1.00;;;;;;;12.02;84.06;99536.30;1761995;81;21019;-80
2022/09/16 04:02:00;;;;;;;3.52;1.10;;;;;;;12.01;84.05;99545.96;1762288;81;21032;-80
2022/09/16 04:04:27;;;;;;;2.58;1.10;;;;;;;12.00;84.24;99545.59;1762005;81;21015;-80
2022/09/16 04:06:55;;;;;;;4.10;1.00;;;;;;;12.01;84.26;99547.75;1762320;81;21268;-81
2022/09/16 04:09:22;;;;;;;2.27;1.02;;;;;;;12.03;84.41;99545.89;1760080;81;21429;-81
2022/09/16 04:11:49;;;;;;;4.83;1.30;;;;;;;12.04;84.48;99544.94;1743119;81;21020;-81
2022/09/16 04:14:16;;;;;;;4.53;1.20;;;;;;;12.04;84.53;99539.69;1762024;81;21032;-81
2022/09/16 04:16:43;;;;;;;4.17;1.10;;;;;;;12.06;84.62;99547.02;1762355;81;21099;-81
2022/09/16 04:19:12;;;;;;;5.87;1.10;;;;;;;12.09;84.72;99548.63;1762092;81;21106;-81
2022/09/16 04:21:41;;;;;;;2.77;1.20;;;;;;;12.09;84.62;99546.00;1762311;81;21455;-81
2022/09/16 04:24:08;;;;;;;4.33;1.05;;;;;;;12.10;84.63;99547.69;1761945;81;21490;-80
2022/09/16 04:26:35;;;;;;;3.95;1.22;;;;;;;12.11;84.60;99545.43;1740778;81;21505;-81
2022/09/16 04:29:02;;;;;;;2.80;0.90;;;;;;;12.10;84.57;99541.96;1756449;80;22097;-81
2022/09/16 04:31:29;;;;;;;4.70;1.10;;;;;;;12.10;84.58;99541.12;1750273;81;21911;-81
2022/09/16 04:33:57;;;;;;;5.22;1.12;;;;;;;12.10;84.52;99541.12;1740912;81;21523;-81
2022/09/16 04:36:24;;;;;;;4.97;1.25;;;;;;;12.08;84.48;99538.56;1726623;81;20988;-81
2022/09/16 04:38:51;;;;;;;4.53;1.20;;;;;;;12.06;84.38;99539.14;1726353;81;21049;-81
2022/09/16 04:41:20;;;;;;;4.97;1.20;;;;;;;12.05;84.43;99533.05;1727346;81;20996;-81
2022/09/16 04:43:54;;;;;;;2.67;1.02;;;;;;;12.01;84.34;99532.83;1730735;81;21926;-80
2022/09/16 04:46:24;;;;;;;4.10;1.15;;;;;;;12.00;84.26;99536.41;1726162;80;21429;-81
2022/09/16 04:48:52;;;;;;;3.62;0.95;;;;;;;11.97;84.24;99526.08;1726199;81;20947;-81
2022/09/16 04:51:21;;;;;;;2.47;0.90;;;;;;;11.96;84.34;99536.17;1726416;81;21087;-81
2022/09/16 04:53:49;;;;;;;3.85;0.93;;;;;;;11.96;84.43;99534.86;1726215;81;20992;-80
2022/09/16 04:56:20;;;;;;;4.22;1.20;;;;;;;11.96;84.43;99537.49;1726341;81;21793;-81
2022/09/16 04:58:50;;;;;;;3.20;1.17;;;;;;;11.95;84.32;99535.81;1726185;80;21462;-79
2022/09/16 05:01:23;;;;;;;4.37;1.32;;;;;;;11.94;84.39;99537.20;1726459;80;21457;-80
2022/09/16 05:03:54;;;;;;;2.37;1.20;;;;;;;11.94;84.42;99541.13;1726518;81;21311;-80
2022/09/16 05:06:26;;;;;;;4.20;1.30;;;;;;;11.93;84.42;99538.98;1726497;81;21036;-79
2022/09/16 05:08:55;;;;;;;1.82;0.90;;;;;;;11.94;84.52;99534.56;1726201;81;21122;-80
2022/09/16 05:11:26;;;;;;;1.85;1.10;;;;;;;11.94;84.72;99541.13;1731936;81;21499;-80
2022/09/16 05:13:57;;;;;;;3.33;1.30;;;;;;;11.95;84.64;99539.75;1755643;80;21028;-80
2022/09/16 05:16:24;;;;;;;4.58;1.35;;;;;;;11.94;84.75;99530.63;1728951;80;21986;-80
2022/09/16 05:18:55;;;;;;;2.27;1.30;;;;;;;11.96;84.88;99543.22;1726401;81;21620;-82
2022/09/16 05:21:23;;;;;;;;;;;;;;;11.97;84.96;99533.95;1728833;81;21506;-80
2022/09/16 05:23:50;;;;;;;3.70;1.25;;;;;;;11.99;85.07;99532.53;1726467;81;20423;-79
2022/09/16 05:26:24;;;;;;;5.08;1.42;;;;;;;11.99;85.04;99537.31;1726007;80;21073;-83
2022/09/16 05:28:52;;;;;;;5.17;1.60;;;;;;;12.01;85.13;99531.98;1726264;81;21032;-82
2022/09/16 05:31:24;;;;;;;5.12;1.60;;;;;;;12.04;85.21;99534.44;1724388;81;21036;-81
2022/09/16 05:34:00;;;;;;;4.65;1.57;;;;;;;12.06;85.27;99539.14;1743575;81;21305;-82
2022/09/16 05:36:31;;;;;;;2.27;1.20;;;;;;;12.08;85.29;99533.31;1746196;81;21016;-92
2022/09/16 05:38:59;;;;;;;3.80;1.50;;;;;;;12.12;85.29;99535.32;1731934;81;21107;-85
2022/09/16 05:41:26;;;;;;;3.25;1.60;;;;;;;12.16;85.39;99539.45;1745185;81;21012;-82
2022/09/16 05:43:56;;;;;;;5.53;1.40;;;;;;;12.19;85.50;99536.20;1743115;81;21039;-82
2022/09/16 05:46:23;;;;;;;3.33;1.82;;;;;;;12.23;85.57;99540.33;1732337;81;21244;-80
2022/09/16 05:48:50;;;;;;;4.00;1.95;;;;;;;12.31;85.73;99541.69;1736873;81;22009;-82
2022/09/16 05:51:21;;;;;;;4.08;1.77;;;;;;;12.37;85.66;99534.75;1742518;81;21020;-91
2022/09/16 05:53:49;;;;;;;2.67;1.80;;;;;;;12.43;85.65;99530.44;1734827;81;21036;-81
2022/09/16 05:56:26;;;;;;;3.70;1.50;;;;;;;12.47;85.60;99541.14;1737372;81;21329;-83
2022/09/16 05:58:55;;;;;;;4.70;1.52;;;;;;;12.51;85.42;99537.41;1743136;81;21162;-84
2022/09/16 06:01:27;;;;;;;6.30;1.77;;;;;;;12.53;85.31;99535.55;1741348;81;20940;-83
2022/09/16 06:03:55;;;;;;;4.67;1.72;;;;;;;12.58;85.45;99534.81;1741833;81;20921;-81
2022/09/16 06:06:27;;;;;;;2.42;1.50;;;;;;;12.64;85.53;99539.70;1742416;81;21552;-78
2022/09/16 06:08:58;;;;;;;2.58;1.40;;;;;;;12.70;85.23;99538.49;1746759;81;21043;-83
2022/09/16 06:11:27;;;;;;;4.28;1.60;;;;;;;12.71;85.01;99544.95;1732872;80;21067;-81
2022/09/16 06:13:57;;;;;;;2.45;1.37;;;;;;;12.70;84.71;99547.22;1753555;80;21079;-78
2022/09/16 06:16:26;;;;;;;2.95;1.62;;;;;;;12.70;84.63;99547.22;1754168;81;20913;-80
2022/09/16 06:18:54;;;;;;;2.95;1.57;;;;;;;12.71;84.51;99542.80;1753775;81;21036;-76
2022/09/16 06:21:23;;;;;;;3.05;1.65;;;;;;;12.75;84.55;99536.88;1753689;81;21078;-81
2022/09/16 06:23:50;;;;;;;5.47;1.67;;;;;;;12.77;84.64;99538.48;1753621;81;21122;-79
2022/09/16 06:26:20;;;;;;;2.70;1.75;;;;;;;12.82;84.57;99540.84;1744583;80;21115;-79
2022/09/16 06:28:49;;;;;;;5.67;1.95;;;;;;;12.84;84.39;99538.51;1739232;81;21017;-82
2022/09/16 06:31:24;;;;;;;4.05;1.80;;;;;;;12.86;84.35;99537.12;1743227;81;24207;-81
2022/09/16 06:33:52;;;;;;;4.17;2.20;;;;;;;12.88;84.26;99544.42;1736258;81;21035;-77
2022/09/16 06:36:27;;;;;;;2.65;1.62;;;;;;;12.93;84.39;99543.68;1721081;81;21042;-79
2022/09/16 06:38:54;;;;;;;3.42;1.98;;;;;;;13.00;84.62;99542.83;1724606;81;21080;-83
2022/09/16 06:41:22;;;;;;;2.42;1.57;;;;;;;13.02;84.07;99546.22;1726406;81;21044;-77
2022/09/16 06:43:50;;;;;;;6.20;2.02;;;;;;;12.99;83.83;99541.98;1725064;81;20949;-79
2022/09/16 06:46:25;;;;;;;4.42;2.02;;;;;;;12.98;83.62;99535.52;1737406;81;21028;-79
2022/09/16 06:48:56;;;;;;;3.05;1.62;;;;;;;12.97;83.58;99537.75;1738719;81;21125;-80
2022/09/16 06:51:27;;;;;;;4.30;1.50;;;;;;;12.99;83.66;99531.94;1736869;81;21009;-82
2022/09/16 06:54:01;;;;;;;2.47;1.30;;;;;;;13.02;83.67;99532.59;1733506;81;21024;-81
2022/09/16 06:56:28;;;;;;;4.60;1.30;;;;;;;13.04;83.61;99533.83;1741804;81;20995;-78
2022/09/16 06:58:56;;;;;;;3.42;1.30;;;;;;;13.02;83.16;99536.53;1728391;81;21017;-78
2022/09/16 07:01:27;;;;;;;2.42;1.05;;;;;;;12.99;83.08;99534.56;1739013;81;21174;-78
2022/09/16 07:03:57;;;;;;;3.85;1.30;;;;;;;12.99;83.05;99543.30;1737557;80;21079;-78
2022/09/16 07:06:28;;;;;;;4.05;1.25;;;;;;;12.97;82.81;99536.00;1739781;81;21059;-83
2022/09/16 07:08:57;;;;;;;2.65;1.25;;;;;;;12.98;82.98;99542.94;1739291;81;21644;-78
2022/09/16 07:11:24;;;;;;;4.80;1.20;;;;;;;13.03;83.12;99546.14;1738326;81;21020;-80
2022/09/16 07:13:51;;;;;;;3.35;1.20;;;;;;;13.06;82.91;99542.48;1739041;81;21182;-80
2022/09/16 07:16:24;;;;;;;2.50;1.25;;;;;;;13.10;82.92;99541.34;1739373;80;21000;-78
2022/09/16 07:18:57;;;;;;;2.37;1.07;;;;;;;13.13;82.63;99543.30;1733078;81;21035;-74
2022/09/16 07:21:28;;;;;;;2.87;1.00;;;;;;;13.16;82.73;99545.77;1736005;81;21530;-78
2022/09/16 07:24:01;;;;;;;5.55;1.12;;;;;;;13.22;82.48;99547.18;1732473;81;21068;-80
2022/09/16 07:26:32;;;;;;;6.22;1.20;;;;;;;13.29;82.39;99559.51;1738687;81;21923;-78
2022/09/16 07:29:01;;;;;;;5.20;1.20;;;;;;;13.32;82.21;99555.38;1747304;81;20909;-77
2022/09/16 07:31:33;;;;;;;4.42;1.05;;;;;;;13.41;82.42;99550.00;1736351;81;21048;-80
2022/09/16 07:34:01;;;;;;;3.45;1.00;;;;;;;13.48;82.13;99554.80;1741844;81;21490;-79
2022/09/16 07:36:32;;;;;;;3.22;0.90;;;;;;;13.52;81.78;99552.36;1737823;81;21020;-90
2022/09/16 07:38:59;;;;;;;2.87;1.40;;;;;;;13.56;81.55;99560.42;1730236;81;21541;-81
2022/09/16 07:41:31;;;;;;;5.53;1.10;;;;;;;13.59;81.27;99556.28;1733878;81;21019;-77
2022/09/16 07:43:59;;;;;;;2.22;1.00;;;;;;;13.65;81.24;99556.37;1757267;81;21103;-75
2022/09/16 07:46:31;;;;;;;5.70;1.00;;;;;;;13.72;81.22;99560.80;1762141;81;21008;-76
2022/09/16 07:49:00;;;;;;;3.75;0.90;;;;;;;13.74;80.91;99561.04;1761951;81;21582;-78
2022/09/16 07:51:29;;;;;;;3.67;1.32;;;;;;;13.80;80.88;99557.17;1762167;81;21957;-78
2022/09/16 07:54:02;;;;;;;4.78;1.30;;;;;;;13.87;81.07;99561.59;1761932;81;21066;-78
2022/09/16 07:56:34;;;;;;;3.47;0.90;;;;;;;13.93;80.69;99557.24;1762321;81;21470;-78
2022/09/16 07:59:03;;;;;;;3.10;0.80;;;;;;;13.95;80.45;99561.95;1761978;81;21024;-79
2022/09/16 08:01:32;;;;;;;2.30;1.12;;;;;;;14.00;80.55;99569.93;1762446;81;21009;-78
2022/09/16 08:04:00;;;;;;;2.50;0.80;;;;;;;14.06;80.62;99562.94;1762059;81;21189;-79
2022/09/16 08:06:30;;;;;;;4.15;0.70;;;;;;;14.13;80.56;99561.22;1762329;81;21020;-78
2022/09/16 08:09:01;;;;;;;2.40;1.20;;;;;;;14.18;80.31;99565.72;1762255;81;21004;-78
2022/09/16 08:11:30;;;;;;;4.45;1.17;;;;;;;14.16;79.74;99565.84;1740961;81;20973;-77
2022/09/16 08:13:59;;;;;;;4.75;0.85;;;;;;;14.14;79.43;99564.24;1762003;81;21377;-78
2022/09/16 08:16:26;;;;;;;1.95;0.80;;;;;;;14.11;79.34;99561.33;1762106;81;21110;-79
2022/09/16 08:18:57;;;;;;;2.20;0.80;;;;;;;14.06;79.05;99569.52;1762443;81;20973;-76
2022/09/16 08:21:28;;;;;;;3.25;0.93;;;;;;;14.02;78.97;99572.00;1762025;81;21504;-77
2022/09/16 08:23:56;;;;;;;3.75;1.30;;;;;;;13.95;78.71;99574.64;1762218;80;21024;-79
2022/09/16 08:26:25;;;;;;;1.95;0.80;;;;;;;13.96;78.89;99571.05;1762066;81;20969;-78
2022/09/16 08:28:52;;;;;;;3.42;1.15;;;;;;;13.99;78.71;99572.64;1761899;81;21243;-79
2022/09/16 08:31:20;;;;;;;2.77;1.17;;;;;;;14.02;78.88;99566.73;1761855;81;21004;-78
2022/09/16 08:33:47;;;;;;;1.90;0.60;;;;;;;14.09;78.83;99568.96;1741210;81;21059;-77
2022/09/16 08:36:19;;;;;;;4.62;1.27;;;;;;;14.15;78.69;99564.13;1761931;81;21008;-77
2022/09/16 08:38:53;;;;;;;2.67;0.82;;;;;;;14.22;78.60;99564.11;1762295;81;22020;-79
2022/09/16 08:42:09;;;;;;;2.58;0.75;;;;;;;14.26;77.90;99556.84;1762085;81;21218;-77
2022/09/16 08:44:51;;;;;;;2.47;0.60;;;;;;;14.28;77.62;99553.16;1745063;81;21048;-78
2022/09/16 08:47:41;;;;;;;4.42;1.15;;;;;;;14.26;77.22;99559.47;1758342;81;21114;-78
2022/09/16 08:50:12;;;;;;;;;;;;;;;14.22;77.10;99563.27;1764570;81;21083;-78
2022/09/16 08:52:41;;;;;;;3.98;1.07;;;;;;;14.18;76.98;99564.41;1761743;81;20484;-79
2022/09/16 08:55:30;;;;;;;3.87;1.00;;;;;;;14.15;77.06;99570.72;1762370;81;21093;-77
2022/09/16 08:58:16;;;;;;;3.72;0.90;;;;;;;14.12;76.81;99565.65;1744652;81;20932;-77
2022/09/16 09:00:48;;;;;;;5.00;0.95;;;;;;;14.13;77.02;99563.38;1762348;81;21052;-79
2022/09/16 09:03:40;;;;;;;1.90;0.70;;;;;;;14.15;77.07;99564.60;1762033;81;21008;-78
2022/09/16 09:06:21;;;;;;;6.15;0.93;;;;;;;14.19;77.12;99572.67;1741832;81;21004;-77
2022/09/16 09:09:12;;;;;;;1.75;0.60;;;;;;;14.14;76.75;99565.56;1762105;81;21047;-79
2022/09/16 09:11:53;;;;;;;3.92;0.90;;;;;;;14.06;76.65;99564.26;1741296;80;20996;-78
2022/09/16 09:14:42;;;;;;;3.10;0.80;;;;;;;14.05;76.67;99555.98;1761899;81;21008;-79
2022/09/16 09:17:33;;;;;;;3.10;0.98;;;;;;;14.15;76.94;99560.17;1762100;81;21012;-78
2022/09/16 09:20:21;;;;;;;2.35;0.98;;;;;;;14.31;77.23;99553.43;1761755;80;21004;-79
2022/09/16 09:23:02;;;;;;;3.87;0.72;;;;;;;14.53;77.41;99550.73;1688081;82;21803;-77
2022/09/16 09:26:02;;;;;;;3.20;0.80;;;;;;;14.76;76.97;99543.89;1742570;81;21433;-78
2022/09/16 09:28:44;;;;;;;3.35;0.72;;;;;;;14.92;76.56;99548.02;1758342;81;21004;-78
2022/09/16 09:31:42;;;;;;;3.27;0.75;;;;;;;15.08;76.05;99529.82;1755722;81;21032;-77
2022/09/16 09:34:15;;;;;;;2.30;0.70;;;;;;;15.22;75.20;99528.86;1739731;81;21032;-77
2022/09/16 09:37:02;;;;;;;2.77;1.02;;;;;;;15.57;75.20;99519.73;1756279;81;21093;-76
2022/09/16 09:39:56;;;;;;;1.52;0.70;;;;;;;15.57;75.20;99519.73;1756448;81;21009;-78
2022/09/16 09:42:28;;;;;;;1.98;0.80;;;;;;;15.61;73.67;99524.70;1756477;81;21016;-78
2022/09/16 09:45:04;;;;;;;1.67;0.60;;;;;;;15.61;73.29;99531.78;1756603;81;20974;-79
2022/09/16 09:48:09;;;;;;;2.33;0.50;;;;;;;15.64;73.16;99535.52;1736028;81;21099;-77
2022/09/16 09:50:47;;;;;;;2.45;0.85;;;;;;;15.61;72.59;99532.62;1756459;81;21182;-78
2022/09/16 09:53:27;;;;;;;1.42;0.65;;;;;;;15.53;72.08;99538.92;1756829;81;21036;-79
2022/09/16 09:56:12;;;;;;;2.55;0.60;;;;;;;15.48;71.51;99538.41;1735301;81;21087;-78
2022/09/16 09:58:59;;;;;;;1.92;0.60;;;;;;;15.54;71.36;99533.16;1710150;82;21612;-79
2022/09/16 10:01:27;;;;;;;1.40;0.50;;;;;;;15.70;71.55;99534.27;1775103;80;21597;-79
2022/09/16 10:03:56;;;;;;;3.65;0.70;;;;;;;15.87;71.66;99529.91;1736678;82;21634;-81
2022/09/16 10:06:31;;;;;;;2.77;0.70;;;;;;;15.96;71.46;99537.19;1747698;80;21064;-79
2022/09/16 10:08:58;;;;;;;3.77;0.60;;;;;;;15.92;70.70;99533.55;1740996;80;21131;-77
2022/09/16 10:11:30;;;;;;;2.55;0.68;;;;;;;15.85;70.42;99535.78;1754392;80;21090;-79
2022/09/16 10:14:00;;;;;;;4.03;0.50;;;;;;;15.75;70.20;99536.11;1742353;82;20989;-80
2022/09/16 10:16:38;;;;;;;;;;;;;;;15.67;69.98;99536.62;1712798;82;21825;-79
2022/09/16 10:19:17;;;;;;;2.27;0.60;;;;;;;15.73;70.10;99532.23;1709749;83;20196;-80
2022/09/16 10:21:52;;;;;;;1.10;0.60;;;;;;;15.81;70.53;99527.24;1773257;80;21599;-78
2022/09/16 10:24:33;;;;;;;3.77;0.78;;;;;;;15.79;70.00;99528.30;1716735;82;21041;-79
2022/09/16 10:27:18;;;;;;;0.95;0.50;;;;;;;15.83;70.32;99535.07;1740608;82;21488;-81
2022/09/16 10:29:43;;;;;;;2.25;0.60;;;;;;;15.94;70.73;99535.13;1685885;83;21084;-77
2022/09/16 10:32:18;;;;;;;1.92;0.60;;;;;;;16.02;70.92;99527.48;1741631;82;21078;-76
2022/09/16 10:34:47;;;;;;;3.17;0.60;;;;;;;16.02;70.34;99533.26;1751214;80;21037;-79
2022/09/16 10:37:19;;;;;;;0.97;0.50;;;;;;;15.83;69.87;99534.59;1756459;81;21048;-79
2022/09/16 10:39:53;;;;;;;3.20;0.80;;;;;;;15.72;69.69;99531.88;1756403;81;20989;-80
2022/09/16 10:42:25;;;;;;;1.12;0.50;;;;;;;15.60;69.74;99525.66;1756448;81;21092;-78
2022/09/16 10:44:56;;;;;;;2.70;1.17;;;;;;;15.47;69.82;99535.41;1756374;81;21005;-80
2022/09/16 10:47:31;;;;;;;2.30;0.60;;;;;;;15.30;69.93;99538.41;1736074;81;21061;-81
2022/09/16 10:50:04;;;;;;;3.37;0.50;;;;;;;15.14;70.40;99547.86;1756542;81;20989;-86
2022/09/16 10:52:44;;;;;;;2.08;0.68;;;;;;;14.75;70.36;99545.69;1726618;81;21023;-81
2022/09/16 10:55:28;;;;;;;1.75;0.90;;;;;;;14.28;70.24;99542.61;1748047;80;21781;-80
2022/09/16 10:58:13;;;;;;;1.87;0.47;;;;;;;13.85;71.13;99537.97;1756735;81;21483;-80
2022/09/16 11:01:16;;;;;;;4.78;0.60;;;;;;;13.64;72.54;99528.36;1755474;81;21036;-80
2022/09/16 11:04:13;;;;;;;1.90;0.60;;;;;;;13.76;74.24;99525.40;1756823;80;21012;-79
2022/09/16 11:06:55;;;;;;;1.87;0.55;;;;;;;13.83;74.54;99527.55;1727395;81;20986;-78
2022/09/16 11:10:05;;;;;;;2.62;0.80;;;;;;;13.83;74.87;99531.98;1733762;81;21077;-80
2022/09/16 11:13:15;;;;;;;2.90;0.50;;;;;;;13.76;75.47;99523.61;1746186;81;21540;-78
2022/09/16 11:15:58;;;;;;;;;;;;;;;13.68;75.51;99530.31;1746276;81;21067;-79
2022/09/16 11:19:05;;;;;;;1.05;0.47;;;;;;;13.55;76.26;99531.10;1756709;81;20428;-82
2022/09/16 11:21:46;;;;;;;5.25;0.95;;;;;;;13.47;76.19;99526.79;1735239;81;21024;-81
2022/09/16 11:24:31;;;;;;;1.47;0.50;;;;;;;13.42;76.53;99524.91;1755987;81;21044;-82
2022/09/16 11:27:12;;;;;;;4.55;0.85;;;;;;;13.65;77.21;99513.39;1756471;81;20989;-79
2022/09/16 11:30:10;;;;;;;2.75;0.82;;;;;;;14.13;78.11;99519.05;1756434;81;20993;-78
2022/09/16 11:33:02;;;;;;;1.30;0.50;;;;;;;15.11;77.25;99511.13;1756585;81;21016;-81
2022/09/16 11:35:40;;;;;;;2.35;0.60;;;;;;;15.11;77.25;99511.13;1756562;81;21012;-80
2022/09/16 11:38:25;;;;;;;2.05;0.60;;;;;;;15.71;77.25;99516.13;1756508;81;21163;-84
2022/09/16 11:41:16;;;;;;;3.37;0.90;;;;;;;16.14;76.71;99514.31;1756725;81;21502;-81
2022/09/16 11:43:57;;;;;;;2.40;0.47;;;;;;;16.41;75.60;99512.26;1748042;81;21530;-78
2022/09/16 11:46:47;;;;;;;3.02;0.80;;;;;;;16.77;75.41;99506.48;1755221;81;20992;-81
2022/09/16 11:49:53;;;;;;;2.40;0.60;;;;;;;16.85;74.22;99503.22;1756555;81;21091;-76
2022/09/16 11:52:47;;;;;;;4.67;0.50;;;;;;;16.91;73.74;99504.92;1755488;81;21209;-80
2022/09/16 11:55:38;;;;;;;1.32;0.40;;;;;;;16.89;73.38;99516.59;1756449;81;21016;-86
2022/09/16 11:58:35;;;;;;;1.75;0.55;;;;;;;16.51;72.04;99520.33;1736617;81;20985;-82
2022/09/16 12:01:31;;;;;;;1.75;0.68;;;;;;;15.83;72.22;99520.54;1756499;81;21040;-81
2022/09/16 12:04:03;;;;;;;1.92;0.70;;;;;;;15.23;72.71;99511.57;1753248;81;21031;-81
2022/09/16 12:06:39;;;;;;;1.17;0.47;;;;;;;15.15;74.77;99505.50;1756276;81;21183;-82
2022/09/16 12:09:17;;;;;;;1.75;0.57;;;;;;;15.25;75.16;99508.36;1736187;81;21040;-81
2022/09/16 12:11:51;;;;;;;0.82;0.40;;;;;;;15.09;75.57;99503.78;1722008;81;21001;-84